Time;durP1;ratioP1;P1;durP2;ratioP2;P2;SDS_P1;SDS_P2;PMS_P1;PMS_P2;Temp;Humidity;BMP_temperature;BMP_pressure;BME280_temperature;BME280_humidity;BME280_pressure;Samples;Min_cycle;Max_cycle;Signal;HPM_P1;HPM_P2
2023/12/07 00:00:18;;;;;;;;;;;1.80;99.90;;;;;;5134593;27;19942;-29
2023/12/07 00:02:45;;;;;;;;;;;1.80;99.90;;;;;;5132387;27;19936;-30
2023/12/07 00:05:11;;;;;;;;;;;1.90;99.90;;;;;;5107628;27;20379;-30
2023/12/07 00:07:38;;;;;;;;;;;1.90;99.90;;;;;;5128326;27;19943;-30
2023/12/07 00:10:07;;;;;;;;;;;1.80;99.90;;;;;;5109731;27;19945;-30
2023/12/07 00:12:33;;;;;;;;;;;1.80;99.90;;;;;;5116541;27;19963;-31
2023/12/07 00:15:00;;;;;;;;;;;1.90;99.90;;;;;;5115799;27;19947;-30
2023/12/07 00:17:27;;;;;;;;;;;1.80;99.90;;;;;;5116454;27;19988;-30
2023/12/07 00:19:53;;;;;;;;;;;1.80;99.90;;;;;;5114973;27;20006;-31
2023/12/07 00:22:20;;;;;;;;;;;1.80;99.90;;;;;;5107756;27;20372;-30
2023/12/07 00:24:47;;;;;;;;;;;1.80;99.90;;;;;;5112045;27;20008;-30
2023/12/07 00:27:15;;;;;;;;;;;1.80;99.90;;;;;;5131989;27;19939;-30
2023/12/07 00:29:41;;;;;;;;;;;1.80;99.90;;;;;;5119055;27;20032;-30
2023/12/07 00:32:08;;;;;;;;;;;1.70;99.90;;;;;;5101323;27;19941;-31
2023/12/07 00:34:35;;;;;;;;;;;1.70;99.90;;;;;;5106186;28;19938;-30
2023/12/07 00:37:02;;;;;;;;;;;1.80;99.90;;;;;;5131192;27;20356;-30
2023/12/07 00:39:29;;;;;;;;;;;1.80;99.90;;;;;;5112824;27;19943;-29
2023/12/07 00:41:56;;;;;;;;;;;1.90;99.90;;;;;;5111093;27;19967;-30
2023/12/07 00:44:24;;;;;;;;;;;1.80;99.90;;;;;;5116077;27;19940;-30
2023/12/07 00:46:51;;;;;;;;;;;1.80;99.90;;;;;;5112335;27;20050;-30
2023/12/07 00:49:17;;;;;;;;;;;1.80;99.90;;;;;;5111218;27;19938;-30
2023/12/07 00:51:44;;;;;;;;;;;1.80;99.90;;;;;;5108380;27;19923;-30
2023/12/07 00:54:10;;;;;;;;;;;1.80;99.90;;;;;;5132477;27;19942;-30
2023/12/07 00:56:37;;;;;;;;;;;1.80;99.90;;;;;;5103360;28;19940;-30
2023/12/07 00:59:04;;;;;;;;;;;1.80;99.90;;;;;;5132891;27;20008;-30
2023/12/07 01:01:32;;;;;;;;;;;1.80;99.90;;;;;;5132939;27;20363;-30
2023/12/07 01:03:58;;;;;;;;;;;1.80;99.90;;;;;;5107437;28;20007;-30
2023/12/07 01:06:25;;;;;;;;;;;1.70;99.90;;;;;;5109970;27;20415;-30
2023/12/07 01:08:52;;;;;;;;;;;1.80;99.90;;;;;;5130970;27;19976;-30
2023/12/07 01:11:19;;;;;;;;;;;1.80;99.90;;;;;;5132055;27;19934;-30
2023/12/07 01:13:45;;;;;;;;;;;1.80;99.90;;;;;;5095264;27;19973;-30
2023/12/07 01:16:12;;;;;;;;;;;1.80;99.90;;;;;;5134172;27;19961;-30
2023/12/07 01:18:40;;;;;;;;;;;1.80;99.90;;;;;;5114883;27;19941;-30
2023/12/07 01:21:06;;;;;;;;;;;1.80;99.90;;;;;;5133623;27;20343;-31
2023/12/07 01:23:33;;;;;;;;;;;1.80;99.90;;;;;;5114993;27;19924;-30
2023/12/07 01:26:02;;;;;;;;;;;1.80;99.90;;;;;;5133124;27;19961;-30
2023/12/07 01:28:28;;;;;;;;;;;1.80;99.90;;;;;;5130032;27;19940;-30
2023/12/07 01:30:55;;;;;;;;;;;1.80;99.90;;;;;;5133218;27;20023;-28
2023/12/07 01:33:22;;;;;;;;;;;1.80;99.90;;;;;;5133204;27;19940;-29
2023/12/07 01:35:50;;;;;;;;;;;1.80;99.90;;;;;;5114684;27;19936;-30
2023/12/07 01:38:16;;;;;;;;;;;1.80;99.90;;;;;;5131516;27;20486;-29
2023/12/07 01:40:43;;;;;;;;;;;1.80;99.90;;;;;;5113137;27;19981;-29
2023/12/07 01:43:10;;;;;;;;;;;1.80;99.90;;;;;;5132440;27;20477;-29
2023/12/07 01:45:36;;;;;;;;;;;1.80;99.90;;;;;;5108653;28;19934;-30
2023/12/07 01:48:03;;;;;;;;;;;1.80;99.90;;;;;;5108992;27;19940;-30
2023/12/07 01:50:30;;;;;;;;;;;1.90;99.90;;;;;;5106525;27;19942;-30
2023/12/07 01:53:00;;;;;;;;;;;1.80;99.90;;;;;;5113606;27;19988;-29
2023/12/07 01:55:27;;;;;;;;;;;1.80;99.90;;;;;;5113876;27;19973;-31
2023/12/07 01:57:53;;;;;;;;;;;1.90;99.90;;;;;;5126022;27;20038;-30
2023/12/07 02:00:20;;;;;;;;;;;1.90;99.90;;;;;;5113703;27;19923;-30
2023/12/07 02:02:47;;;;;;;;;;;1.90;99.90;;;;;;5114246;27;19956;-30
2023/12/07 02:05:14;;;;;;;;;;;1.80;99.90;;;;;;5101381;27;19977;-30
2023/12/07 02:07:40;;;;;;;;;;;1.90;99.90;;;;;;5105219;27;19923;-30
2023/12/07 02:10:09;;;;;;;;;;;1.90;99.90;;;;;;5113619;27;19937;-30
2023/12/07 02:12:36;;;;;;;;;;;1.80;99.90;;;;;;5113153;27;19994;-30
2023/12/07 02:15:03;;;;;;;;;;;1.80;99.90;;;;;;5114384;27;19941;-30
2023/12/07 02:17:34;;;;;;;;;;;1.80;99.90;;;;;;5114027;27;19944;-30
2023/12/07 02:20:02;;;;;;;;;;;1.80;99.90;;;;;;5118240;28;20148;-31
2023/12/07 02:22:37;;;;;;;;;;;1.70;99.90;;;;;;5113866;28;20437;-30
2023/12/07 02:25:08;;;;;;;;;;;1.70;99.90;;;;;;5112829;27;19991;-30
2023/12/07 02:27:39;;;;;;;;;;;1.70;99.90;;;;;;5121132;27;19943;-31
2023/12/07 02:30:06;;;;;;;;;;;1.70;99.90;;;;;;5121067;27;19941;-31
2023/12/07 02:32:33;;;;;;;;;;;1.70;99.90;;;;;;5139386;27;19968;-29
2023/12/07 02:35:00;;;;;;;;;;;1.60;99.90;;;;;;5121710;27;19944;-30
2023/12/07 02:37:28;;;;;;;;;;;1.60;99.90;;;;;;5130706;27;19928;-30
2023/12/07 02:39:55;;;;;;;;;;;1.50;99.90;;;;;;5119573;27;20399;-31
2023/12/07 02:42:22;;;;;;;;;;;1.50;99.90;;;;;;5138463;27;19993;-31
2023/12/07 02:44:52;;;;;;;;;;;1.50;99.90;;;;;;5119981;27;19948;-31
2023/12/07 02:47:19;;;;;;;;;;;1.50;99.90;;;;;;5116753;27;19984;-30
2023/12/07 02:49:45;;;;;;;;;;;1.40;99.90;;;;;;5120335;27;20146;-30
2023/12/07 02:52:12;;;;;;;;;;;1.40;99.90;;;;;;5138653;27;19992;-29
2023/12/07 02:54:39;;;;;;;;;;;1.40;99.90;;;;;;5119592;27;19998;-30
2023/12/07 02:57:05;;;;;;;;;;;1.40;99.90;;;;;;5132642;27;19968;-29
2023/12/07 02:59:32;;;;;;;;;;;1.30;99.90;;;;;;5137095;27;20005;-30
2023/12/07 03:02:00;;;;;;;;;;;1.30;99.90;;;;;;5137907;27;19956;-31
2023/12/07 03:04:27;;;;;;;;;;;1.30;99.90;;;;;;5121019;27;19945;-31
2023/12/07 03:06:53;;;;;;;;;;;1.30;99.90;;;;;;5139568;27;19945;-31
2023/12/07 03:09:20;;;;;;;;;;;1.30;99.90;;;;;;5109461;28;20422;-30
2023/12/07 03:11:46;;;;;;;;;;;1.20;99.90;;;;;;5131570;27;19996;-30
2023/12/07 03:14:13;;;;;;;;;;;1.20;99.90;;;;;;5120828;27;20379;-30
2023/12/07 03:16:40;;;;;;;;;;;1.20;99.90;;;;;;5132974;27;19996;-31
2023/12/07 03:19:08;;;;;;;;;;;1.20;99.90;;;;;;5121029;27;20020;-29
2023/12/07 03:21:34;;;;;;;;;;;1.10;99.90;;;;;;5117059;28;19938;-31
2023/12/07 03:24:01;;;;;;;;;;;1.10;99.90;;;;;;5118722;27;19983;-30
2023/12/07 03:26:28;;;;;;;;;;;1.10;99.90;;;;;;5137897;27;19936;-30
2023/12/07 03:28:54;;;;;;;;;;;1.10;99.90;;;;;;5120522;27;19991;-31
2023/12/07 03:31:21;;;;;;;;;;;1.10;99.90;;;;;;5139200;27;19992;-31
2023/12/07 03:33:47;;;;;;;;;;;1.20;99.90;;;;;;5139095;27;19938;-31
2023/12/07 03:36:16;;;;;;;;;;;1.10;99.90;;;;;;5111191;28;20009;-30
2023/12/07 03:38:43;;;;;;;;;;;1.00;99.90;;;;;;5134498;27;20441;-30
2023/12/07 03:41:10;;;;;;;;;;;1.00;99.90;;;;;;5111945;27;19945;-31
2023/12/07 03:43:36;;;;;;;;;;;1.00;99.90;;;;;;5116929;27;19923;-31
2023/12/07 03:46:04;;;;;;;;;;;1.00;99.90;;;;;;5134560;27;19924;-30
2023/12/07 03:48:31;;;;;;;;;;;1.00;99.90;;;;;;5117178;27;19941;-31
2023/12/07 03:50:58;;;;;;;;;;;1.00;99.90;;;;;;5134716;27;19959;-30
2023/12/07 03:53:26;;;;;;;;;;;1.00;99.90;;;;;;5109685;28;20463;-31
2023/12/07 03:55:52;;;;;;;;;;;0.90;99.90;;;;;;5125108;27;20352;-30
2023/12/07 03:58:19;;;;;;;;;;;0.90;99.90;;;;;;5111553;27;20291;-30
2023/12/07 04:00:46;;;;;;;;;;;0.90;99.90;;;;;;5115959;27;19983;-30
2023/12/07 04:03:12;;;;;;;;;;;0.90;99.90;;;;;;5116482;27;19923;-30
2023/12/07 04:05:39;;;;;;;;;;;0.90;99.90;;;;;;5132908;27;19947;-30
2023/12/07 04:08:06;;;;;;;;;;;0.90;99.90;;;;;;5117113;27;19961;-31
2023/12/07 04:10:34;;;;;;;;;;;0.90;99.90;;;;;;5134528;27;19986;-31
2023/12/07 04:13:01;;;;;;;;;;;0.80;99.90;;;;;;5123975;27;19964;-30
2023/12/07 04:15:27;;;;;;;;;;;0.80;99.90;;;;;;5114375;27;19936;-30
2023/12/07 04:17:54;;;;;;;;;;;0.80;99.90;;;;;;5134531;27;19939;-31
2023/12/07 04:20:21;;;;;;;;;;;0.80;99.90;;;;;;5106164;28;19943;-30
2023/12/07 04:22:48;;;;;;;;;;;0.90;99.90;;;;;;5097094;28;20415;-31
2023/12/07 04:25:14;;;;;;;;;;;0.80;99.90;;;;;;5106497;27;19936;-31
2023/12/07 04:27:42;;;;;;;;;;;0.80;99.90;;;;;;5109658;28;19942;-30
2023/12/07 04:30:09;;;;;;;;;;;0.80;99.90;;;;;;5112954;27;20449;-31
2023/12/07 04:32:36;;;;;;;;;;;0.80;99.90;;;;;;5132958;27;19942;-30
2023/12/07 04:35:03;;;;;;;;;;;0.80;99.90;;;;;;5106755;27;20279;-30
2023/12/07 04:37:29;;;;;;;;;;;0.80;99.90;;;;;;5113653;27;19945;-30
2023/12/07 04:39:56;;;;;;;;;;;0.80;99.90;;;;;;5136650;27;19966;-31
2023/12/07 04:42:23;;;;;;;;;;;0.80;99.90;;;;;;5117473;27;20314;-31
2023/12/07 04:44:51;;;;;;;;;;;0.80;99.90;;;;;;5115720;27;19956;-30
2023/12/07 04:47:17;;;;;;;;;;;0.80;99.90;;;;;;5104960;27;19961;-31
2023/12/07 04:49:44;;;;;;;;;;;0.80;99.90;;;;;;5114985;27;19987;-31
2023/12/07 04:52:10;;;;;;;;;;;0.70;99.90;;;;;;5115063;27;19938;-31
2023/12/07 04:54:38;;;;;;;;;;;0.70;99.90;;;;;;5130518;27;19993;-31
2023/12/07 04:57:05;;;;;;;;;;;0.70;99.90;;;;;;5112878;27;19975;-30
2023/12/07 04:59:31;;;;;;;;;;;0.70;99.90;;;;;;5111701;27;20003;-31
2023/12/07 05:01:59;;;;;;;;;;;0.70;99.90;;;;;;5112671;27;20419;-32
2023/12/07 05:04:26;;;;;;;;;;;0.70;99.90;;;;;;5109376;27;19940;-30
2023/12/07 05:06:53;;;;;;;;;;;0.70;99.90;;;;;;5108269;28;19942;-31
2023/12/07 05:09:21;;;;;;;;;;;0.60;99.90;;;;;;5105300;27;19941;-31
2023/12/07 05:11:48;;;;;;;;;;;0.70;99.90;;;;;;5111907;27;19936;-31
2023/12/07 05:14:14;;;;;;;;;;;0.70;99.90;;;;;;5132546;27;20594;-31
2023/12/07 05:16:41;;;;;;;;;;;0.70;99.90;;;;;;5132508;27;20421;-31
2023/12/07 05:19:09;;;;;;;;;;;0.70;99.90;;;;;;5133012;27;19939;-31
2023/12/07 05:21:36;;;;;;;;;;;0.60;99.90;;;;;;5115541;27;19948;-31
2023/12/07 05:24:03;;;;;;;;;;;0.60;99.90;;;;;;5115812;27;20479;-31
2023/12/07 05:26:32;;;;;;;;;;;0.70;99.90;;;;;;5125112;27;20415;-32
2023/12/07 05:28:59;;;;;;;;;;;0.70;99.90;;;;;;5129978;27;19964;-30
2023/12/07 05:31:26;;;;;;;;;;;0.60;99.90;;;;;;5123782;27;20034;-31
2023/12/07 05:33:53;;;;;;;;;;;0.60;99.90;;;;;;5131968;27;20428;-31
2023/12/07 05:36:21;;;;;;;;;;;0.60;99.90;;;;;;5129317;27;19989;-31
2023/12/07 05:38:48;;;;;;;;;;;0.60;99.90;;;;;;5112025;27;19967;-30
2023/12/07 05:41:14;;;;;;;;;;;0.60;99.90;;;;;;5112758;27;20526;-31
2023/12/07 05:43:41;;;;;;;;;;;0.60;99.90;;;;;;5113778;27;19966;-31
2023/12/07 05:46:08;;;;;;;;;;;0.60;99.90;;;;;;5114680;27;19938;-31
2023/12/07 05:48:34;;;;;;;;;;;0.60;99.90;;;;;;5114765;27;19956;-31
2023/12/07 05:51:02;;;;;;;;;;;0.60;99.90;;;;;;5133300;27;20012;-31
2023/12/07 05:53:32;;;;;;;;;;;0.60;99.90;;;;;;5115702;27;20411;-31
2023/12/07 05:55:58;;;;;;;;;;;0.50;99.90;;;;;;5115013;27;19951;-31
2023/12/07 05:58:25;;;;;;;;;;;0.60;99.90;;;;;;5109712;28;19973;-31
2023/12/07 06:00:52;;;;;;;;;;;0.50;99.90;;;;;;5096855;28;20025;-30
2023/12/07 06:03:18;;;;;;;;;;;0.60;99.90;;;;;;5115943;27;19970;-31
2023/12/07 06:05:46;;;;;;;;;;;0.50;99.90;;;;;;5130282;27;20395;-31
2023/12/07 06:08:13;;;;;;;;;;;0.50;99.90;;;;;;5132810;27;20312;-31
2023/12/07 06:10:41;;;;;;;;;;;0.50;99.90;;;;;;5110118;28;19947;-30
2023/12/07 06:13:07;;;;;;;;;;;0.50;99.90;;;;;;5129190;27;19957;-31
2023/12/07 06:15:34;;;;;;;;;;;0.50;99.90;;;;;;5117478;27;19942;-31
2023/12/07 06:18:01;;;;;;;;;;;0.50;99.90;;;;;;5112527;27;19991;-31
2023/12/07 06:20:27;;;;;;;;;;;0.50;99.90;;;;;;5114700;28;19936;-31
2023/12/07 06:22:54;;;;;;;;;;;0.50;99.90;;;;;;5108869;28;20008;-30
2023/12/07 06:25:21;;;;;;;;;;;0.50;99.90;;;;;;5115823;28;19964;-31
2023/12/07 06:27:49;;;;;;;;;;;0.50;99.90;;;;;;5104183;28;19950;-30
2023/12/07 06:30:16;;;;;;;;;;;0.40;99.90;;;;;;5122222;28;19960;-30
2023/12/07 06:32:42;;;;;;;;;;;0.50;99.90;;;;;;5110188;28;19927;-30
2023/12/07 06:35:09;;;;;;;;;;;0.40;99.90;;;;;;5131398;28;19992;-30
2023/12/07 06:37:36;;;;;;;;;;;0.40;99.90;;;;;;5129836;28;19936;-30
2023/12/07 06:40:04;;;;;;;;;;;0.40;99.90;;;;;;5122836;28;19940;-31
2023/12/07 06:42:31;;;;;;;;;;;0.40;99.90;;;;;;5127381;28;19955;-31
2023/12/07 06:44:59;;;;;;;;;;;0.40;99.90;;;;;;5114196;28;19992;-30
2023/12/07 06:47:25;;;;;;;;;;;0.40;99.90;;;;;;5125210;28;19936;-31
2023/12/07 06:49:52;;;;;;;;;;;0.40;99.90;;;;;;5110841;28;19935;-31
2023/12/07 06:52:19;;;;;;;;;;;0.40;99.90;;;;;;5109158;28;19931;-30
2023/12/07 06:54:45;;;;;;;;;;;0.30;99.90;;;;;;5109227;28;20036;-31
2023/12/07 06:57:18;;;;;;;;;;;0.30;99.90;;;;;;5125179;28;19990;-31
2023/12/07 06:59:44;;;;;;;;;;;0.30;99.90;;;;;;5127440;28;20260;-30
2023/12/07 07:02:12;;;;;;;;;;;0.30;99.90;;;;;;5130557;28;19938;-30
2023/12/07 07:04:39;;;;;;;;;;;0.30;99.90;;;;;;5111887;28;19967;-30
2023/12/07 07:07:06;;;;;;;;;;;0.30;99.90;;;;;;5109437;28;19933;-31
2023/12/07 07:09:33;;;;;;;;;;;0.30;99.90;;;;;;5096441;28;19947;-32
2023/12/07 07:12:00;;;;;;;;;;;0.30;99.90;;;;;;5112088;28;20011;-31
2023/12/07 07:14:26;;;;;;;;;;;0.30;99.90;;;;;;5114428;28;19966;-29
2023/12/07 07:16:53;;;;;;;;;;;0.20;99.90;;;;;;5114655;28;20006;-30
2023/12/07 07:19:21;;;;;;;;;;;0.20;99.90;;;;;;5114141;28;19941;-31
2023/12/07 07:21:48;;;;;;;;;;;0.20;99.90;;;;;;5114089;28;19934;-30
2023/12/07 07:24:15;;;;;;;;;;;0.20;99.90;;;;;;5114105;28;19952;-31
2023/12/07 07:27:06;;;;;;;;;;;0.20;99.90;;;;;;5114332;28;19981;-28
2023/12/07 07:29:33;;;;;;;;;;;0.20;99.90;;;;;;5114618;28;19987;-30
2023/12/07 07:31:59;;;;;;;;;;;0.20;99.90;;;;;;5115422;28;20367;-30
2023/12/07 07:34:27;;;;;;;;;;;0.20;99.90;;;;;;5115805;28;19943;-31
2023/12/07 07:36:54;;;;;;;;;;;0.20;99.90;;;;;;5126967;27;19941;-29
2023/12/07 07:39:21;;;;;;;;;;;0.20;99.90;;;;;;5121408;27;19977;-30
2023/12/07 07:41:47;;;;;;;;;;;0.20;99.90;;;;;;5114443;28;19992;-30
2023/12/07 07:44:14;;;;;;;;;;;0.10;99.90;;;;;;5113810;28;19955;-30
2023/12/07 07:46:41;;;;;;;;;;;0.20;99.90;;;;;;5115718;28;19940;-30
2023/12/07 07:49:07;;;;;;;;;;;0.20;99.90;;;;;;5114334;28;19937;-31
2023/12/07 07:51:35;;;;;;;;;;;0.20;99.90;;;;;;5113097;28;19936;-31
2023/12/07 07:54:02;;;;;;;;;;;0.20;99.90;;;;;;5113722;28;20007;-30
2023/12/07 07:56:29;;;;;;;;;;;0.20;99.90;;;;;;5114895;28;19936;-30
2023/12/07 07:58:57;;;;;;;;;;;0.20;99.90;;;;;;5114769;28;19945;-30
2023/12/07 08:01:24;;;;;;;;;;;0.20;99.90;;;;;;5114552;28;19923;-31
2023/12/07 08:03:51;;;;;;;;;;;0.20;99.90;;;;;;5114430;28;19966;-30
2023/12/07 08:06:17;;;;;;;;;;;0.30;99.90;;;;;;5108406;28;20341;-30
2023/12/07 08:08:45;;;;;;;;;;;0.20;99.90;;;;;;5112246;28;19940;-31
2023/12/07 08:11:14;;;;;;;;;;;0.30;99.90;;;;;;5113596;28;20447;-30
2023/12/07 08:13:41;;;;;;;;;;;0.30;99.90;;;;;;5133154;27;19969;-31
2023/12/07 08:16:09;;;;;;;;;;;0.30;99.90;;;;;;5117826;27;20024;-30
2023/12/07 08:18:35;;;;;;;;;;;0.30;99.90;;;;;;5134110;27;20038;-30
2023/12/07 08:21:02;;;;;;;;;;;0.30;99.90;;;;;;5117451;27;19927;-30
2023/12/07 08:23:30;;;;;;;;;;;0.30;99.90;;;;;;5116674;27;20063;-30
2023/12/07 08:25:58;;;;;;;;;;;0.30;99.90;;;;;;5117478;27;19940;-30
2023/12/07 08:28:24;;;;;;;;;;;0.30;99.90;;;;;;5116844;27;19937;-30
2023/12/07 08:30:51;;;;;;;;;;;0.30;99.90;;;;;;5135477;27;20001;-29
2023/12/07 08:33:17;;;;;;;;;;;0.40;99.90;;;;;;5117038;27;19985;-30
2023/12/07 08:35:44;;;;;;;;;;;0.40;99.90;;;;;;5117361;27;20010;-30
2023/12/07 08:38:11;;;;;;;;;;;0.50;99.90;;;;;;5135207;27;19934;-30
2023/12/07 08:40:38;;;;;;;;;;;0.40;99.90;;;;;;5116646;27;19939;-30
2023/12/07 08:43:06;;;;;;;;;;;0.50;99.90;;;;;;5117198;27;20032;-30
2023/12/07 08:45:34;;;;;;;;;;;0.50;99.90;;;;;;5117217;27;20012;-29
2023/12/07 08:48:00;;;;;;;;;;;0.50;99.90;;;;;;5117112;27;19941;-30
2023/12/07 08:50:27;;;;;;;;;;;0.50;99.90;;;;;;5134655;27;19939;-30
2023/12/07 08:52:54;;;;;;;;;;;0.60;99.90;;;;;;5134907;27;19938;-31
2023/12/07 08:55:20;;;;;;;;;;;0.60;99.90;;;;;;5134812;27;20353;-30
2023/12/07 08:57:47;;;;;;;;;;;0.60;99.90;;;;;;5134901;27;19923;-30
2023/12/07 09:00:15;;;;;;;;;;;0.60;99.90;;;;;;5116801;27;19941;-30
2023/12/07 09:02:42;;;;;;;;;;;0.70;99.90;;;;;;5134569;27;20413;-30
2023/12/07 09:05:09;;;;;;;;;;;0.70;99.90;;;;;;5134722;27;20380;-30
2023/12/07 09:07:36;;;;;;;;;;;0.70;99.90;;;;;;5116531;27;20316;-31
2023/12/07 09:10:03;;;;;;;;;;;0.80;99.90;;;;;;5110448;28;19943;-30
2023/12/07 09:12:30;;;;;;;;;;;0.80;99.90;;;;;;5114099;28;20041;-30
2023/12/07 09:14:57;;;;;;;;;;;0.80;99.90;;;;;;5096256;28;19944;-30
2023/12/07 09:17:25;;;;;;;;;;;0.80;99.90;;;;;;5096056;28;19945;-30
2023/12/07 09:19:51;;;;;;;;;;;0.90;99.90;;;;;;5098516;27;19993;-30
2023/12/07 09:22:18;;;;;;;;;;;0.90;99.90;;;;;;5134330;27;19945;-29
2023/12/07 09:24:45;;;;;;;;;;;0.90;99.90;;;;;;5115645;27;19955;-30
2023/12/07 09:27:12;;;;;;;;;;;0.90;99.90;;;;;;5134206;27;19996;-30
2023/12/07 09:29:39;;;;;;;;;;;1.00;99.90;;;;;;5115769;27;19943;-30
2023/12/07 09:32:06;;;;;;;;;;;0.90;99.90;;;;;;5095411;28;20399;-30
2023/12/07 09:34:35;;;;;;;;;;;0.90;99.90;;;;;;5094424;28;19945;-30
2023/12/07 09:37:07;;;;;;;;;;;0.90;99.90;;;;;;5113641;28;20388;-30
2023/12/07 09:39:34;;;;;;;;;;;0.80;99.90;;;;;;5095491;28;20035;-30
2023/12/07 09:42:01;;;;;;;;;;;0.80;99.90;;;;;;5132913;27;19998;-30
2023/12/07 09:44:27;;;;;;;;;;;0.80;99.90;;;;;;5115866;27;19961;-30
2023/12/07 09:46:54;;;;;;;;;;;0.80;99.90;;;;;;5134238;27;20360;-30
2023/12/07 09:49:21;;;;;;;;;;;0.80;99.90;;;;;;5115847;27;19994;-30
2023/12/07 09:51:49;;;;;;;;;;;0.80;99.90;;;;;;5115313;27;19988;-30
2023/12/07 09:54:16;;;;;;;;;;;0.70;99.90;;;;;;5115488;27;19942;-30
2023/12/07 09:56:43;;;;;;;;;;;0.70;99.90;;;;;;5115597;27;19998;-30
2023/12/07 09:59:09;;;;;;;;;;;0.70;99.90;;;;;;5134036;27;19940;-30
2023/12/07 10:01:36;;;;;;;;;;;0.70;99.90;;;;;;5134010;27;20294;-31
2023/12/07 10:04:15;;;;;;;;;;;0.70;99.90;;;;;;5109421;28;19958;-29
2023/12/07 10:06:43;;;;;;;;;;;0.70;99.90;;;;;;5094840;28;20386;-30
2023/12/07 10:09:11;;;;;;;;;;;0.70;99.90;;;;;;5113138;28;19944;-29
2023/12/07 10:11:37;;;;;;;;;;;0.70;99.90;;;;;;5094764;28;19937;-29
2023/12/07 10:14:05;;;;;;;;;;;0.60;99.90;;;;;;5095151;28;19983;-30
2023/12/07 10:16:35;;;;;;;;;;;0.70;99.90;;;;;;5113550;28;19968;-30
2023/12/07 10:19:10;;;;;;;;;;;0.70;99.90;;;;;;5113394;28;19989;-30
2023/12/07 10:21:37;;;;;;;;;;;0.80;99.90;;;;;;5112763;28;19992;-29
2023/12/07 10:24:04;;;;;;;;;;;0.70;99.90;;;;;;5126897;27;19961;-29
2023/12/07 10:26:32;;;;;;;;;;;0.70;99.90;;;;;;5132370;28;19940;-30
2023/12/07 10:28:59;;;;;;;;;;;0.70;99.90;;;;;;5132611;28;20109;-30
2023/12/07 10:31:26;;;;;;;;;;;0.70;99.90;;;;;;5112900;28;20019;-29
2023/12/07 10:33:53;;;;;;;;;;;0.70;99.90;;;;;;5095170;28;19974;-29
2023/12/07 10:36:20;;;;;;;;;;;0.80;99.90;;;;;;5125165;28;19944;-29
2023/12/07 10:38:50;;;;;;;;;;;0.70;99.90;;;;;;5115227;28;19941;-29
2023/12/07 10:41:17;;;;;;;;;;;0.80;99.90;;;;;;5115022;28;19923;-29
2023/12/07 10:43:45;;;;;;;;;;;0.70;99.90;;;;;;5115166;28;19938;-30
2023/12/07 10:46:12;;;;;;;;;;;0.70;99.90;;;;;;5133908;27;20008;-28
2023/12/07 10:48:39;;;;;;;;;;;0.70;99.90;;;;;;5119252;27;19944;-29
2023/12/07 10:51:08;;;;;;;;;;;0.70;99.90;;;;;;5119201;27;19938;-30
2023/12/07 10:53:40;;;;;;;;;;;0.70;99.90;;;;;;5119032;27;19968;-30
2023/12/07 10:56:07;;;;;;;;;;;0.70;99.90;;;;;;5137387;27;19969;-30
2023/12/07 10:58:34;;;;;;;;;;;0.70;99.90;;;;;;5118882;27;20385;-30
2023/12/07 11:01:02;;;;;;;;;;;0.70;99.90;;;;;;5119136;27;19963;-30
2023/12/07 11:03:29;;;;;;;;;;;0.70;99.90;;;;;;5136956;27;20007;-29
2023/12/07 11:05:56;;;;;;;;;;;0.80;99.90;;;;;;5137222;27;19959;-29
2023/12/07 11:08:24;;;;;;;;;;;0.80;99.90;;;;;;5118671;27;19965;-29
2023/12/07 11:10:51;;;;;;;;;;;0.80;99.90;;;;;;5098667;28;19934;-29
2023/12/07 11:13:18;;;;;;;;;;;0.90;99.90;;;;;;5136490;27;20005;-29
2023/12/07 11:15:45;;;;;;;;;;;0.90;99.90;;;;;;5118739;27;20039;-29
2023/12/07 11:18:13;;;;;;;;;;;0.90;99.90;;;;;;5118394;27;19994;-29
2023/12/07 11:20:41;;;;;;;;;;;0.90;99.90;;;;;;5118788;27;20027;-30
2023/12/07 11:23:08;;;;;;;;;;;0.90;99.90;;;;;;5112575;28;19938;-30
2023/12/07 11:25:34;;;;;;;;;;;0.90;99.90;;;;;;5097923;28;19973;-29
2023/12/07 11:28:01;;;;;;;;;;;0.90;99.90;;;;;;5098322;28;19972;-30
2023/12/07 11:30:28;;;;;;;;;;;0.90;99.90;;;;;;5098182;28;19946;-29
2023/12/07 11:32:55;;;;;;;;;;;0.90;99.90;;;;;;5097794;28;19939;-29
2023/12/07 11:35:23;;;;;;;;;;;0.80;99.90;;;;;;5130000;27;20354;-29
2023/12/07 11:38:01;;;;;;;;;;;0.80;99.90;;;;;;5118191;27;19942;-30
2023/12/07 11:40:27;;;;;;;;;;;0.90;99.90;;;;;;5136493;27;20312;-30
2023/12/07 11:42:54;;;;;;;;;;;0.90;99.90;;;;;;5136266;27;19943;-30
2023/12/07 11:45:35;;;;;;;;;;;0.90;99.90;;;;;;5117474;27;20346;-30
2023/12/07 11:48:12;;;;;;;;;;;0.90;99.90;;;;;;5118395;27;20397;-30
2023/12/07 11:50:53;;;;;;;;;;;0.90;99.90;;;;;;5118271;27;20025;-30
2023/12/07 11:53:22;;;;;;;;;;;0.80;99.90;;;;;;5136299;27;19986;-30
2023/12/07 11:55:49;;;;;;;;;;;0.80;99.90;;;;;;5136009;27;19940;-29
2023/12/07 11:58:16;;;;;;;;;;;0.80;99.90;;;;;;5114685;27;20341;-29
2023/12/07 12:00:42;;;;;;;;;;;0.80;99.90;;;;;;5117932;27;19939;-29
2023/12/07 12:03:09;;;;;;;;;;;0.80;99.90;;;;;;5117984;27;19946;-29
2023/12/07 12:05:38;;;;;;;;;;;0.80;99.90;;;;;;5135802;27;19944;-29
2023/12/07 12:08:05;;;;;;;;;;;0.90;99.90;;;;;;5117430;27;19941;-29
2023/12/07 12:10:33;;;;;;;;;;;0.90;99.90;;;;;;5117789;27;20023;-29
2023/12/07 12:13:01;;;;;;;;;;;0.90;99.90;;;;;;5117371;27;20041;-28
2023/12/07 12:15:29;;;;;;;;;;;0.90;99.90;;;;;;5117651;27;19941;-29
2023/12/07 12:17:56;;;;;;;;;;;0.90;99.90;;;;;;5116644;27;20287;-29
2023/12/07 12:20:23;;;;;;;;;;;0.90;99.90;;;;;;5117548;27;19937;-29
2023/12/07 12:22:50;;;;;;;;;;;0.90;99.90;;;;;;5117367;27;19971;-29
2023/12/07 12:25:17;;;;;;;;;;;0.90;99.90;;;;;;5134481;27;19957;-30
2023/12/07 12:27:45;;;;;;;;;;;1.00;99.90;;;;;;5135455;27;19936;-30
2023/12/07 12:30:13;;;;;;;;;;;1.00;99.90;;;;;;5125752;27;19943;-30
2023/12/07 12:32:43;;;;;;;;;;;1.00;99.90;;;;;;5114372;27;19935;-30
2023/12/07 12:35:10;;;;;;;;;;;1.00;99.90;;;;;;5104235;27;19938;-30
2023/12/07 12:37:37;;;;;;;;;;;1.00;99.90;;;;;;5112309;27;20380;-30
2023/12/07 12:40:06;;;;;;;;;;;1.00;99.90;;;;;;5130278;27;19940;-30
2023/12/07 12:42:32;;;;;;;;;;;1.10;99.90;;;;;;5117031;27;19943;-29
2023/12/07 12:45:00;;;;;;;;;;;1.10;99.90;;;;;;5116820;27;19978;-29
2023/12/07 12:47:27;;;;;;;;;;;1.10;99.90;;;;;;5116670;27;19942;-29
2023/12/07 12:49:54;;;;;;;;;;;1.10;99.90;;;;;;5116701;27;19927;-30
2023/12/07 12:52:21;;;;;;;;;;;1.10;99.90;;;;;;5116830;27;19923;-30
2023/12/07 12:54:48;;;;;;;;;;;1.10;99.90;;;;;;5134683;27;20014;-30
2023/12/07 12:57:15;;;;;;;;;;;1.10;99.90;;;;;;5116677;27;19934;-30
2023/12/07 12:59:41;;;;;;;;;;;1.10;99.90;;;;;;5109698;28;19960;-30
2023/12/07 13:02:09;;;;;;;;;;;1.10;99.90;;;;;;5130090;27;19940;-29
2023/12/07 13:04:36;;;;;;;;;;;1.10;99.90;;;;;;5134770;27;20031;-30
2023/12/07 13:07:03;;;;;;;;;;;1.10;99.90;;;;;;5134826;27;19994;-30
2023/12/07 13:09:29;;;;;;;;;;;1.20;99.90;;;;;;5114331;27;20003;-30
2023/12/07 13:11:56;;;;;;;;;;;1.20;99.90;;;;;;5116536;27;20006;-29
2023/12/07 13:14:23;;;;;;;;;;;1.20;99.90;;;;;;5135074;27;19937;-30
2023/12/07 13:16:49;;;;;;;;;;;1.20;99.90;;;;;;5134644;27;19934;-30
2023/12/07 13:19:19;;;;;;;;;;;1.30;99.90;;;;;;5132598;27;19992;-30
2023/12/07 13:21:46;;;;;;;;;;;1.30;99.90;;;;;;5102457;28;19938;-31
2023/12/07 13:24:13;;;;;;;;;;;1.20;99.90;;;;;;5128600;27;20342;-29
2023/12/07 13:26:40;;;;;;;;;;;1.30;99.90;;;;;;5115437;27;19956;-29
2023/12/07 13:29:07;;;;;;;;;;;1.30;99.90;;;;;;5130415;27;19941;-30
2023/12/07 13:31:34;;;;;;;;;;;1.30;99.90;;;;;;5133087;27;19939;-30
2023/12/07 13:34:01;;;;;;;;;;;1.40;99.90;;;;;;5115930;27;19923;-30
2023/12/07 13:36:31;;;;;;;;;;;1.30;99.90;;;;;;5134031;27;19936;-30
2023/12/07 13:38:58;;;;;;;;;;;1.30;99.90;;;;;;5133761;27;19938;-30
2023/12/07 13:41:24;;;;;;;;;;;1.40;99.90;;;;;;5114831;27;19924;-30
2023/12/07 13:43:51;;;;;;;;;;;1.40;99.90;;;;;;5113237;28;19942;-31
2023/12/07 13:46:18;;;;;;;;;;;1.40;99.90;;;;;;5131690;27;20315;-30
2023/12/07 13:48:45;;;;;;;;;;;1.50;99.90;;;;;;5115574;27;20003;-30
2023/12/07 13:51:12;;;;;;;;;;;1.40;99.90;;;;;;5115180;27;19984;-30
2023/12/07 13:53:40;;;;;;;;;;;1.40;99.90;;;;;;5115347;27;19980;-30
2023/12/07 13:56:07;;;;;;;;;;;1.50;99.90;;;;;;5112702;27;19937;-30
2023/12/07 13:58:34;;;;;;;;;;;1.50;99.90;;;;;;5113762;27;19939;-30
2023/12/07 14:01:01;;;;;;;;;;;1.50;99.90;;;;;;5115712;27;20355;-30
2023/12/07 14:03:28;;;;;;;;;;;1.50;99.90;;;;;;5115645;27;20378;-30
2023/12/07 14:05:55;;;;;;;;;;;1.50;99.90;;;;;;5123104;27;19962;-31
2023/12/07 14:08:21;;;;;;;;;;;1.50;99.90;;;;;;5095151;28;19940;-30
2023/12/07 14:10:49;;;;;;;;;;;1.60;99.90;;;;;;5095244;28;19987;-30
2023/12/07 14:13:17;;;;;;;;;;;1.60;99.90;;;;;;5094910;28;20491;-30
2023/12/07 14:15:44;;;;;;;;;;;1.60;99.90;;;;;;5110071;27;19937;-30
2023/12/07 14:18:10;;;;;;;;;;;1.70;99.90;;;;;;5123599;27;19969;-30
2023/12/07 14:20:37;;;;;;;;;;;1.60;99.90;;;;;;5094156;28;19943;-29
2023/12/07 14:23:05;;;;;;;;;;;1.70;99.90;;;;;;5102102;27;19963;-30
2023/12/07 14:25:32;;;;;;;;;;;1.80;99.90;;;;;;5133606;27;19960;-30
2023/12/07 14:28:00;;;;;;;;;;;1.70;99.90;;;;;;5132427;28;19986;-31
2023/12/07 14:30:27;;;;;;;;;;;1.80;99.90;;;;;;5105629;28;19954;-30